createdAt,value
2019-04-20T00:02:19.331Z,11.58
2019-04-20T00:04:49.951Z,11.55
2019-04-20T00:07:24.630Z,11.46
2019-04-20T00:10:03.658Z,11.40
2019-04-20T00:12:36.854Z,11.33
2019-04-20T00:15:03.003Z,11.14
2019-04-20T00:17:41.205Z,11.06
2019-04-20T00:20:16.405Z,10.96
2019-04-20T00:23:22.657Z,10.94
2019-04-20T00:26:17.123Z,10.98
2019-04-20T00:29:04.457Z,10.80
2019-04-20T00:31:32.228Z,10.84
2019-04-20T00:33:59.151Z,10.83
2019-04-20T00:36:22.316Z,10.88
2019-04-20T00:38:58.246Z,10.90
2019-04-20T00:41:27.802Z,10.83
2019-04-20T00:44:09.742Z,10.85
2019-04-20T00:46:41.969Z,10.85
2019-04-20T00:49:20.647Z,10.75
2019-04-20T00:52:05.091Z,10.77
2019-04-20T00:54:14.326Z,10.63
2019-04-20T00:56:46.220Z,10.69
2019-04-20T00:59:32.359Z,10.61
2019-04-20T01:02:10.597Z,10.61
2019-04-20T01:04:47.664Z,10.50
2019-04-20T01:07:28.927Z,10.44
2019-04-20T01:10:08.965Z,10.44
2019-04-20T01:12:42.802Z,10.40
2019-04-20T01:15:25.550Z,10.35
2019-04-20T01:17:48.677Z,10.27
2019-04-20T01:20:22.693Z,10.25
2019-04-20T01:23:01.939Z,10.17
2019-04-20T01:25:35.290Z,10.13
2019-04-20T01:28:19.367Z,10.13
2019-04-20T01:30:43.180Z,10.06
2019-04-20T01:33:25.886Z,10.00
2019-04-20T01:35:56.622Z,9.97
2019-04-20T01:38:38.809Z,9.95
2019-04-20T01:40:52.701Z,9.83
2019-04-20T01:43:24.790Z,9.83
2019-04-20T01:46:01.372Z,9.86
2019-04-20T01:48:34.024Z,9.77
2019-04-20T01:51:13.382Z,9.77
2019-04-20T01:53:58.489Z,9.72
2019-04-20T01:56:32.947Z,9.68
2019-04-20T01:59:20.187Z,9.69
2019-04-20T02:02:08.042Z,9.70
2019-04-20T02:04:52.571Z,9.67
2019-04-20T02:07:28.210Z,9.65
2019-04-20T02:10:02.807Z,9.66
2019-04-20T02:12:34.570Z,9.57
2019-04-20T02:15:07.606Z,9.47
2019-04-20T02:17:46.137Z,9.42
2019-04-20T02:20:33.122Z,9.36
2019-04-20T02:22:59.413Z,9.30
2019-04-20T02:25:20.649Z,9.18
2019-04-20T02:27:57.965Z,9.21
2019-04-20T02:33:42.803Z,9.04
2019-04-20T02:36:29.958Z,9.05
2019-04-20T02:41:57.531Z,9.06
2019-04-20T02:44:23.873Z,9.05
2019-04-20T02:46:57.515Z,9.01
2019-04-20T02:49:40.344Z,9.00
2019-04-20T03:02:00.331Z,8.91
2019-04-20T03:04:28.343Z,8.87
2019-04-20T03:07:06.857Z,8.87
2019-04-20T03:09:47.229Z,8.81
2019-04-20T03:12:23.539Z,8.85
2019-04-20T03:14:47.815Z,8.82
2019-04-20T03:17:29.698Z,8.72
2019-04-20T03:19:52.526Z,8.68
2019-04-20T03:23:01.099Z,8.61
2019-04-20T03:25:15.799Z,8.51
2019-04-20T03:28:02.682Z,8.49
2019-04-20T03:33:41.319Z,8.42
2019-04-20T03:36:07.093Z,8.34
2019-04-20T03:38:26.247Z,8.35
2019-04-20T03:40:56.602Z,8.35
2019-04-20T03:43:15.995Z,8.36
2019-04-20T03:45:57.261Z,8.30
2019-04-20T03:48:41.386Z,8.29
2019-04-20T03:51:22.099Z,8.22
2019-04-20T03:54:07.578Z,8.18
2019-04-20T03:56:54.112Z,8.27
2019-04-20T03:59:39.502Z,8.27
2019-04-20T04:02:42.385Z,8.25
2019-04-20T04:05:08.507Z,8.22
2019-04-20T04:07:36.468Z,8.15
2019-04-20T04:10:16.945Z,8.13
2019-04-20T04:13:14.789Z,8.13
2019-04-20T04:15:54.057Z,8.14
2019-04-20T04:18:29.875Z,8.13
2019-04-20T04:21:03.067Z,8.11
2019-04-20T04:23:45.848Z,8.13
2019-04-20T04:26:24.552Z,8.14
2019-04-20T04:28:53.789Z,8.12
2019-04-20T04:31:33.315Z,8.20
2019-04-20T04:34:06.265Z,8.29
2019-04-20T04:36:38.281Z,8.28
2019-04-20T04:39:15.422Z,8.29
2019-04-20T04:41:39.767Z,8.34
2019-04-20T04:44:10.777Z,8.32
2019-04-20T04:46:33.961Z,8.36
2019-04-20T04:49:14.278Z,8.45
2019-04-20T04:51:47.465Z,8.53
2019-04-20T04:54:21.972Z,8.53
2019-04-20T04:56:46.266Z,8.57
2019-04-20T04:59:19.292Z,8.54
2019-04-20T05:01:54.945Z,8.57
2019-04-20T05:05:04.926Z,8.64
2019-04-20T05:07:39.799Z,8.69
2019-04-20T05:10:01.289Z,8.70
2019-04-20T05:12:35.404Z,8.73
2019-04-20T05:15:15.976Z,8.80
2019-04-20T05:18:02.054Z,8.80
2019-04-20T05:20:43.803Z,8.83
2019-04-20T05:23:28.010Z,8.94
2019-04-20T05:26:29.986Z,8.99
2019-04-20T05:28:59.014Z,9.05
2019-04-20T05:31:30.901Z,9.07
2019-04-20T05:34:21.835Z,9.10
2019-04-20T05:36:50.605Z,9.07
2019-04-20T05:39:29.511Z,9.07
2019-04-20T05:41:53.151Z,9.09
2019-04-20T05:44:41.342Z,9.17
2019-04-20T05:47:12.323Z,9.31
2019-04-20T05:49:47.678Z,9.34
2019-04-20T05:52:29.120Z,9.39
2019-04-20T05:54:56.183Z,9.49
2019-04-20T05:57:32.934Z,9.55
2019-04-20T06:00:13.860Z,9.63
2019-04-20T06:02:36.689Z,9.68
2019-04-20T06:05:28.852Z,9.74
2019-04-20T06:07:42.430Z,9.79
2019-04-20T06:10:20.832Z,9.87
2019-04-20T06:12:51.755Z,9.92
2019-04-20T06:15:56.500Z,10.00
2019-04-20T06:18:32.753Z,10.05
2019-04-20T06:21:19.765Z,10.13
2019-04-20T06:24:15.636Z,10.25
2019-04-20T06:29:13.708Z,10.41
2019-04-20T06:31:52.784Z,10.50
2019-04-20T06:34:34.382Z,10.60
2019-04-20T06:36:57.370Z,10.66
2019-04-20T06:42:14.940Z,10.84
2019-04-20T06:44:57.811Z,10.94
2019-04-20T06:47:16.230Z,11.01
2019-04-20T06:49:42.485Z,11.10
2019-04-20T06:52:42.489Z,11.23
2019-04-20T06:55:19.809Z,11.34
2019-04-20T06:57:56.277Z,11.48
2019-04-20T07:00:25.752Z,11.61
2019-04-20T07:02:58.983Z,11.65
2019-04-20T07:05:39.508Z,11.81
2019-04-20T07:08:28.967Z,11.90
2019-04-20T07:10:53.149Z,12.02
2019-04-20T07:13:11.578Z,12.11
2019-04-20T07:15:53.103Z,12.24
2019-04-20T07:18:35.750Z,12.30
2019-04-20T07:21:16.055Z,12.48
2019-04-20T07:23:48.226Z,12.59
2019-04-20T07:26:22.439Z,12.69
2019-04-20T07:29:01.441Z,12.79
2019-04-20T07:31:24.661Z,12.91
2019-04-20T07:34:05.631Z,13.03
2019-04-20T07:36:37.831Z,13.18
2019-04-20T07:39:13.310Z,13.29
2019-04-20T07:41:50.532Z,13.39
2019-04-20T07:44:18.698Z,13.50
2019-04-20T07:47:02.814Z,13.60
2019-04-20T07:49:24.749Z,13.73
2019-04-20T07:51:41.691Z,13.82
2019-04-20T07:54:40.153Z,13.90
2019-04-20T07:57:03.531Z,14.01
2019-04-20T07:59:30.543Z,14.15
2019-04-20T08:02:42.568Z,14.23
2019-04-20T08:05:10.734Z,14.37
2019-04-20T08:07:45.266Z,14.49
2019-04-20T08:10:09.790Z,14.55
2019-04-20T08:13:02.233Z,14.62
2019-04-20T08:15:43.087Z,14.93
2019-04-20T08:18:07.674Z,14.93
2019-04-20T08:20:43.127Z,15.10
2019-04-20T08:23:18.580Z,15.40
2019-04-20T08:25:39.823Z,15.40
2019-04-20T08:28:16.698Z,15.79
2019-04-20T08:31:17.895Z,15.79
2019-04-20T08:34:07.516Z,15.89
2019-04-20T08:36:37.413Z,16.00
2019-04-20T08:39:23.205Z,16.09
2019-04-20T08:41:37.279Z,16.19
2019-04-20T08:44:36.912Z,16.28
2019-04-20T08:47:01.333Z,16.37
2019-04-20T08:49:26.347Z,16.59
2019-04-20T08:52:05.914Z,16.71
2019-04-20T08:54:26.707Z,16.77
2019-04-20T08:56:49.874Z,16.76
2019-04-20T08:59:16.731Z,16.93
2019-04-20T09:01:48.969Z,17.03
2019-04-20T09:04:32.998Z,17.13
2019-04-20T09:07:05.483Z,17.23
2019-04-20T09:09:52.712Z,17.12
2019-04-20T09:12:14.474Z,17.15
2019-04-20T09:14:38.452Z,17.03
2019-04-20T09:17:39.689Z,17.32
2019-04-20T09:20:14.704Z,17.47
2019-04-20T09:23:02.204Z,17.59
2019-04-20T09:28:23.845Z,17.98
2019-04-20T09:31:02.229Z,18.19
2019-04-20T09:34:02.780Z,18.46
2019-04-20T09:36:37.523Z,18.58
2019-04-20T09:39:31.594Z,18.83
2019-04-20T09:42:11.490Z,19.05
2019-04-20T09:44:48.795Z,19.14
2019-04-20T09:47:23.810Z,19.33
2019-04-20T09:50:01.467Z,19.55
2019-04-20T09:52:38.152Z,19.58
2019-04-20T09:55:10.794Z,19.55
2019-04-20T09:57:51.265Z,19.98
2019-04-20T10:00:25.691Z,20.31
2019-04-20T10:02:41.257Z,20.64
2019-04-20T10:05:13.646Z,20.49
2019-04-20T10:07:48.431Z,20.93
2019-04-20T10:10:31.147Z,21.22
2019-04-20T10:12:54.212Z,21.25
2019-04-20T10:15:27.938Z,21.21
2019-04-20T10:17:59.680Z,21.26
2019-04-20T10:20:34.748Z,21.12
2019-04-20T10:23:05.021Z,21.24
2019-04-20T10:25:38.178Z,21.41
2019-04-20T10:28:11.676Z,21.53
2019-04-20T10:30:44.424Z,21.85
2019-04-20T10:33:17.623Z,22.02
2019-04-20T10:35:49.686Z,22.18
2019-04-20T10:38:25.532Z,22.08
2019-04-20T10:41:08.173Z,22.39
2019-04-20T10:43:30.934Z,22.80
2019-04-20T10:46:02.799Z,22.76
2019-04-20T10:48:40.266Z,22.90
2019-04-20T10:51:08.470Z,22.54
2019-04-20T10:53:42.397Z,22.87
2019-04-20T10:56:15.737Z,22.69
2019-04-20T10:58:47.733Z,22.77
2019-04-20T11:01:19.932Z,22.39
2019-04-20T11:03:52.371Z,22.50
2019-04-20T11:06:24.701Z,22.99
2019-04-20T11:08:56.667Z,23.44
2019-04-20T11:11:30.820Z,23.73
2019-04-20T11:14:08.351Z,23.34
2019-04-20T11:16:36.174Z,23.46
2019-04-20T11:19:09.442Z,23.71
2019-04-20T11:21:44.221Z,23.89
2019-04-20T11:24:16.420Z,23.79
2019-04-20T11:26:48.338Z,24.13
2019-04-20T11:29:20.374Z,23.89
2019-04-20T11:31:55.685Z,24.07
2019-04-20T11:34:31.425Z,24.01
2019-04-20T11:37:01.281Z,24.09
2019-04-20T11:39:34.840Z,24.00
2019-04-20T11:42:07.761Z,24.42
2019-04-20T11:44:42.410Z,24.60
2019-04-20T11:47:16.784Z,24.39
2019-04-20T11:49:49.386Z,24.21
2019-04-20T11:52:23.141Z,24.17
2019-04-20T11:54:55.240Z,23.92
2019-04-20T11:57:27.244Z,23.97
2019-04-20T11:59:59.356Z,24.35
2019-04-20T12:03:11.107Z,23.85
2019-04-20T12:05:41.502Z,23.94
2019-04-20T12:08:11.183Z,23.74
2019-04-20T12:10:48.372Z,23.42
2019-04-20T12:13:16.788Z,23.28
2019-04-20T12:15:49.682Z,23.23
2019-04-20T12:18:21.679Z,23.10
2019-04-20T12:20:54.808Z,22.99
2019-04-20T12:23:26.708Z,22.85
2019-04-20T12:25:59.829Z,22.71
2019-04-20T12:28:32.148Z,22.66
2019-04-20T12:31:12.878Z,22.55
2019-04-20T12:33:37.916Z,22.29
2019-04-20T12:36:12.258Z,22.29
2019-04-20T12:38:46.278Z,22.42
2019-04-20T12:41:30.420Z,22.60
2019-04-20T12:43:52.008Z,22.46
2019-04-20T12:46:25.175Z,21.96
2019-04-20T12:48:57.882Z,22.02
2019-04-20T12:51:33.588Z,22.04
2019-04-20T12:54:04.690Z,22.09
2019-04-20T12:56:38.373Z,21.96
2019-04-20T12:59:11.613Z,21.89
2019-04-20T13:01:43.851Z,22.00
2019-04-20T13:04:16.465Z,22.06
2019-04-20T13:06:49.309Z,22.13
2019-04-20T13:12:08.965Z,22.20
2019-04-20T13:15:06.844Z,21.98
2019-04-20T13:17:40.050Z,22.17
2019-04-20T13:20:12.338Z,22.20
2019-04-20T13:22:46.528Z,22.42
2019-04-20T13:25:19.066Z,22.51
2019-04-20T13:27:52.744Z,22.61
2019-04-20T13:30:25.959Z,22.59
2019-04-20T13:32:59.423Z,22.64
2019-04-20T13:35:32.200Z,22.73
2019-04-20T13:38:05.309Z,22.74
2019-04-20T13:40:37.684Z,22.92
2019-04-20T13:43:10.037Z,22.90
2019-04-20T13:45:42.651Z,22.94
2019-04-20T13:48:15.135Z,23.08
2019-04-20T13:50:47.162Z,22.82
2019-04-20T13:53:19.287Z,22.84
2019-04-20T13:55:51.918Z,23.04
2019-04-20T13:58:41.322Z,23.27
2019-04-20T14:01:31.009Z,23.51
2019-04-20T14:04:06.106Z,23.29
2019-04-20T14:06:39.370Z,23.52
2019-04-20T14:09:11.867Z,23.44
2019-04-20T14:11:45.367Z,23.60
2019-04-20T14:14:17.303Z,23.63
2019-04-20T14:16:49.233Z,23.60
2019-04-20T14:19:23.216Z,23.69
2019-04-20T14:21:56.346Z,23.39
2019-04-20T14:24:30.848Z,23.25
2019-04-20T14:27:03.583Z,23.08
2019-04-20T14:29:36.955Z,22.96
2019-04-20T14:32:11.820Z,22.58
2019-04-20T14:34:42.960Z,22.30
2019-04-20T14:37:15.084Z,22.18
2019-04-20T14:39:48.064Z,22.34
2019-04-20T14:42:30.171Z,22.43
2019-04-20T14:44:55.500Z,22.27
2019-04-20T14:47:27.925Z,22.25
2019-04-20T14:50:02.869Z,22.03
2019-04-20T14:52:33.574Z,21.65
2019-04-20T14:55:06.017Z,21.97
2019-04-20T14:57:39.519Z,22.10
2019-04-20T15:00:27.810Z,22.58
2019-04-20T15:03:10.128Z,22.83
2019-04-20T15:05:43.953Z,23.15
2019-04-20T15:08:18.553Z,23.68
2019-04-20T15:10:52.008Z,24.17
2019-04-20T15:13:24.611Z,24.31
2019-04-20T15:15:56.862Z,24.62
2019-04-20T15:18:33.589Z,24.92
2019-04-20T15:21:07.022Z,25.17
2019-04-20T15:23:39.524Z,25.97
2019-04-20T15:26:12.728Z,26.03
2019-04-20T15:28:44.688Z,26.63
2019-04-20T15:31:16.634Z,27.09
2019-04-20T15:33:48.865Z,26.49
2019-04-20T15:36:22.086Z,26.11
2019-04-20T15:38:54.093Z,25.61
2019-04-20T15:41:27.343Z,25.29
2019-04-20T15:43:59.529Z,25.15
2019-04-20T15:46:34.400Z,25.01
2019-04-20T15:49:06.161Z,25.14
2019-04-20T15:51:38.018Z,25.62
2019-04-20T15:54:11.401Z,25.66
2019-04-20T15:56:52.681Z,25.04
2019-04-20T15:59:16.954Z,24.66
2019-04-20T16:01:55.606Z,24.21
2019-04-20T16:04:45.423Z,24.17
2019-04-20T16:07:19.216Z,24.25
2019-04-20T16:09:52.319Z,24.07
2019-04-20T16:12:24.761Z,23.94
2019-04-20T16:14:57.684Z,23.75
2019-04-20T16:17:32.776Z,23.65
2019-04-20T16:20:09.037Z,23.30
2019-04-20T16:22:36.852Z,23.00
2019-04-20T16:25:21.517Z,22.84
2019-04-20T16:27:53.863Z,22.60
2019-04-20T16:30:25.756Z,22.37
2019-04-20T16:32:58.721Z,22.27
2019-04-20T16:35:32.099Z,22.15
2019-04-20T16:38:04.412Z,22.02
2019-04-20T16:40:37.810Z,21.92
2019-04-20T16:43:17.983Z,21.77
2019-04-20T16:45:45.418Z,21.58
2019-04-20T16:48:18.035Z,21.45
2019-04-20T16:50:51.004Z,21.33
2019-04-20T16:53:22.962Z,21.28
2019-04-20T16:55:54.814Z,21.19
2019-04-20T16:58:28.017Z,21.09
2019-04-20T17:01:01.289Z,21.03
2019-04-20T17:03:45.970Z,20.90
2019-04-20T17:06:08.328Z,20.78
2019-04-20T17:08:42.738Z,20.68
2019-04-20T17:11:16.002Z,20.58
2019-04-20T17:13:52.723Z,20.55
2019-04-20T17:16:21.910Z,20.51
2019-04-20T17:18:55.228Z,20.44
2019-04-20T17:21:30.528Z,20.42
2019-04-20T17:24:01.626Z,20.36
2019-04-20T17:26:40.997Z,20.28
2019-04-20T17:29:18.072Z,20.17
2019-04-20T17:31:57.866Z,20.07
2019-04-20T17:34:47.626Z,19.95
2019-04-20T17:37:06.757Z,19.91
2019-04-20T17:40:04.148Z,19.77
2019-04-20T17:42:32.466Z,19.68
2019-04-20T17:44:58.501Z,19.61
2019-04-20T17:47:44.800Z,19.53
2019-04-20T17:50:19.128Z,19.46
2019-04-20T17:52:52.299Z,19.38
2019-04-20T17:55:20.640Z,19.28
2019-04-20T17:57:43.510Z,19.19
2019-04-20T18:00:20.696Z,19.12
2019-04-20T18:03:12.088Z,18.99
2019-04-20T18:05:55.835Z,18.82
2019-04-20T18:08:33.873Z,18.64
2019-04-20T18:10:54.976Z,18.40
2019-04-20T18:13:23.627Z,18.25
2019-04-20T18:16:18.265Z,18.12
2019-04-20T18:18:57.435Z,17.97
2019-04-20T18:21:30.770Z,17.79
2019-04-20T18:24:05.246Z,17.68
2019-04-20T18:26:51.957Z,17.61
2019-04-20T18:29:35.614Z,17.55
2019-04-20T18:32:05.631Z,17.47
2019-04-20T18:34:56.185Z,17.27
2019-04-20T18:37:28.658Z,17.13
2019-04-20T18:40:06.213Z,16.96
2019-04-20T18:42:38.892Z,16.74
2019-04-20T18:45:26.732Z,16.57
2019-04-20T18:48:04.814Z,16.36
2019-04-20T18:50:24.451Z,16.24
2019-04-20T18:52:51.648Z,16.22
2019-04-20T18:55:36.020Z,16.13
2019-04-20T18:57:57.571Z,16.05
2019-04-20T19:00:33.865Z,15.95
2019-04-20T19:03:14.420Z,15.83
2019-04-20T19:05:39.897Z,15.80
2019-04-20T19:08:14.023Z,15.78
2019-04-20T19:10:54.148Z,15.66
2019-04-20T19:13:36.757Z,15.59
2019-04-20T19:16:33.436Z,15.39
2019-04-20T19:19:20.113Z,15.35
2019-04-20T19:21:41.456Z,15.25
2019-04-20T19:24:16.919Z,15.18
2019-04-20T19:26:52.552Z,15.10
2019-04-20T19:29:30.085Z,15.00
2019-04-20T19:32:11.516Z,14.88
2019-04-20T19:34:43.256Z,14.82
2019-04-20T19:37:14.219Z,14.74
2019-04-20T19:39:49.345Z,14.62
2019-04-20T19:42:31.228Z,14.60
2019-04-20T19:45:05.534Z,14.30
2019-04-20T19:47:38.439Z,14.25
2019-04-20T19:50:26.701Z,14.16
2019-04-20T19:52:58.324Z,14.17
2019-04-20T19:55:23.702Z,14.13
2019-04-20T19:57:50.416Z,14.11
2019-04-20T20:00:11.453Z,14.10
2019-04-20T20:02:45.702Z,14.08
2019-04-20T20:05:22.875Z,14.14
2019-04-20T20:07:57.410Z,14.10
2019-04-20T20:10:29.905Z,14.10
2019-04-20T20:13:02.346Z,13.94
2019-04-20T20:15:36.415Z,13.92
2019-04-20T20:18:27.447Z,13.90
2019-04-20T20:20:59.575Z,13.98
2019-04-20T20:23:23.955Z,13.94
2019-04-20T20:25:57.148Z,13.90
2019-04-20T20:28:38.220Z,13.79
2019-04-20T20:31:16.326Z,13.79
2019-04-20T20:33:53.447Z,13.62
2019-04-20T20:36:15.631Z,13.41
2019-04-20T20:38:50.261Z,13.30
2019-04-20T20:41:26.242Z,13.30
2019-04-20T20:44:00.105Z,13.22
2019-04-20T20:46:32.853Z,13.22
2019-04-20T20:49:16.128Z,13.22
2019-04-20T20:52:09.813Z,13.28
2019-04-20T20:54:15.442Z,13.28
2019-04-20T20:56:51.429Z,13.29
2019-04-20T20:59:26.795Z,13.28
2019-04-20T21:01:54.045Z,13.29
2019-04-20T21:04:21.547Z,13.28
2019-04-20T21:06:54.786Z,13.25
2019-04-20T21:09:27.159Z,13.27
2019-04-20T21:12:04.834Z,13.25
2019-04-20T21:14:35.342Z,13.18
2019-04-20T21:17:15.186Z,13.21
2019-04-20T21:20:00.959Z,13.14
2019-04-20T21:22:25.884Z,13.14
2019-04-20T21:24:51.917Z,13.16
2019-04-20T21:27:25.826Z,13.15
2019-04-20T21:29:59.930Z,13.16
2019-04-20T21:32:34.585Z,13.16
2019-04-20T21:35:10.356Z,13.16
2019-04-20T21:37:43.414Z,13.07
2019-04-20T21:40:23.221Z,12.95
2019-04-20T21:42:53.576Z,12.90
2019-04-20T21:45:25.664Z,12.87
2019-04-20T21:47:54.565Z,12.82
2019-04-20T21:50:42.711Z,12.78
2019-04-20T21:53:08.696Z,12.75
2019-04-20T21:55:34.215Z,12.66
2019-04-20T21:58:07.241Z,12.59
2019-04-20T22:01:08.099Z,12.53
2019-04-20T22:03:32.176Z,12.44
2019-04-20T22:06:06.928Z,12.41
2019-04-20T22:08:44.480Z,12.31
2019-04-20T22:11:13.586Z,12.25
2019-04-20T22:13:47.639Z,12.19
2019-04-20T22:16:21.947Z,12.07
2019-04-20T22:19:10.405Z,12.02
2019-04-20T22:21:42.485Z,11.95
2019-04-20T22:24:10.491Z,11.95
2019-04-20T22:26:47.805Z,11.96
2019-04-20T22:29:08.005Z,11.94
2019-04-20T22:31:40.299Z,11.96
2019-04-20T22:34:17.416Z,11.98
2019-04-20T22:36:48.596Z,11.95
2019-04-20T22:39:31.972Z,11.91
2019-04-20T22:42:04.937Z,11.93
2019-04-20T22:44:34.349Z,11.90
2019-04-20T22:47:14.005Z,11.83
2019-04-20T22:49:52.893Z,11.68
2019-04-20T22:52:32.508Z,11.55
2019-04-20T22:55:00.700Z,11.32
2019-04-20T22:57:36.268Z,11.24
2019-04-20T23:00:02.523Z,11.19
2019-04-20T23:02:28.611Z,11.15
2019-04-20T23:05:02.719Z,11.03
2019-04-20T23:07:35.243Z,11.02
2019-04-20T23:10:08.810Z,11.06
2019-04-20T23:12:46.909Z,10.85
2019-04-20T23:15:14.621Z,10.83
2019-04-20T23:17:50.085Z,10.77
2019-04-20T23:20:25.283Z,10.73
2019-04-20T23:22:54.661Z,10.70
2019-04-20T23:25:27.103Z,10.72
2019-04-20T23:28:08.132Z,10.65
2019-04-20T23:30:37.516Z,10.60
2019-04-20T23:33:07.722Z,10.60
2019-04-20T23:35:44.934Z,10.61
2019-04-20T23:38:17.982Z,10.62
2019-04-20T23:40:47.837Z,10.57
2019-04-20T23:43:28.217Z,10.55
2019-04-20T23:46:25.998Z,10.54
2019-04-20T23:49:19.195Z,10.41
2019-04-20T23:52:03.613Z,10.32
2019-04-20T23:54:25.181Z,10.26
2019-04-20T23:56:53.592Z,10.14
2019-04-20T23:59:32.373Z,9.99
